Latest Coastal Weather Observations for Burnie Port

IDT60701

Issued at 7:22 pm EST Saturday 30 May 2020 (issued every 10 minutes, with the page automatically refreshed every 10 minutes)

About coastal observations | Map of coastal stations | Coastal observations for TAS | Marine services | Other Formats
Station Details ID: 091344 Name: BURNIE NTC AWS Lat: -41.05 Lon: 145.91 Height: 0.0 m
Data from the previous 72 hours. | See also: Recent months for locations in Tasmania
Date/Time
EST
Wind Sea
Height
m
Swell Vis
km
Cloud Weather Temp
°C
Press
hPa
Rain since
9am
mm
Dir  Spd
kts
Gust
kts
Height
m
Period
s
Dir
30/07:00pm NNE 15 20 - - - - - - - 14.6 1012.0 -
30/06:30pm NNE 14 18 - - - - - - - 14.8 1012.1 -
30/06:00pm N 14 18 - - - - - - - 14.9 1012.4 -
30/05:30pm NNE 15 21 - - - - - - - 14.7 1012.6 -
30/05:00pm N 21 26 - - - - - - - 14.7 1012.8 -
30/04:30pm N 20 25 - - - - - - - 14.7 1013.4 -
30/04:00pm N 19 24 - - - - - - - 14.6 1013.8 -
30/03:30pm N 19 24 - - - - - - - 14.6 1014.1 -
30/03:00pm N 18 23 - - - - - - - 14.4 1014.4 -
30/02:30pm N 21 25 - - - - - - - 14.3 1014.8 -
30/02:00pm N 22 28 - - - - - - - 14.2 1015.2 -
30/01:30pm N 22 27 - - - - - - - 14.2 1015.8 -
30/01:00pm N 23 30 - - - - - - - 14.2 1016.2 -
30/12:30pm N 22 28 - - - - - - - 14.3 1016.7 -
30/12:00pm N 22 28 - - - - - - - 14.3 1017.3 -
30/11:30am N 22 28 - - - - - - - 14.3 1017.9 -
30/11:00am N 20 26 - - - - - - - 14.4 1018.6 -
30/10:30am N 20 27 - - - - - - - 14.5 1019.0 -
30/10:00am N 21 28 - - - - - - - 14.4 1019.3 -
30/09:30am N 20 25 - - - - - - - 14.4 1019.7 -
30/09:00am N 18 24 - - - - - - - 14.3 1019.9 -
30/08:30am N 19 25 - - - - - - - 14.3 1020.1 -
30/08:00am N 19 24 - - - - - - - 14.3 1020.0 -
30/07:30am N 19 25 - - - - - - - 14.3 1020.2 -
30/07:00am N 17 22 - - - - - - - 14.3 1020.1 -
30/06:30am N 18 23 - - - - - - - 14.4 1020.1 -
30/06:00am NNW 17 22 - - - - - - - 14.3 1020.1 -
30/05:30am NNW 15 19 - - - - - - - 14.4 1020.2 -
30/05:00am NNW 15 20 - - - - - - - 14.3 1020.2 -
30/04:30am NW 14 19 - - - - - - - 14.2 1020.3 -
30/04:00am NNW 12 17 - - - - - - - 14.3 1020.5 -
30/03:30am NW 12 15 - - - - - - - 14.2 1020.5 -
30/03:00am NNW 12 15 - - - - - - - 14.2 1020.5 -
30/02:30am NNW 12 16 - - - - - - - 14.3 1020.8 -
30/02:00am N 11 15 - - - - - - - 14.3 1020.9 -
30/01:30am N 13 16 - - - - - - - 14.3 1021.1 -
30/01:00am NNW 8 10 - - - - - - - 14.4 1021.5 -
30/12:30am NW 4 9 - - - - - - - 13.9 1021.8 -
30/12:00am NW 3 8 - - - - - - - 13.7 1022.2 -
 
Date/Time
EST
Wind Sea
Height
m
Swell Vis
km
Cloud Weather Temp
°C
Press
hPa
Rain since
9am
mm
Dir  Spd
kts
Gust
kts
Height
m
Period
s
Dir
29/11:30pm WNW 3 6 - - - - - - - 13.7 1022.3 -
29/11:00pm CALM 0 3 - - - - - - - 13.4 1022.4 -
29/10:30pm CALM 0 0 - - - - - - - 13.0 1022.4 -
29/10:00pm WNW 4 8 - - - - - - - 13.5 1022.6 -
29/09:30pm NW 11 15 - - - - - - - 13.9 1022.8 -
29/09:00pm NW 14 18 - - - - - - - 13.9 1022.9 -
29/08:30pm NW 13 18 - - - - - - - 13.9 1022.8 -
29/08:00pm WNW 6 12 - - - - - - - 13.2 1022.7 -
29/07:30pm NW 8 16 - - - - - - - 13.6 1022.5 -
29/07:00pm WNW 4 7 - - - - - - - 13.3 1022.5 -
29/06:30pm WNW 5 9 - - - - - - - 13.4 1022.4 -
29/06:00pm WNW 7 15 - - - - - - - 13.5 1022.5 -
29/05:30pm NW 15 17 - - - - - - - 13.9 1022.4 -
29/05:00pm NW 15 18 - - - - - - - 13.9 1022.3 -
29/04:30pm NW 17 21 - - - - - - - 13.9 1022.2 -
29/04:00pm NW 17 19 - - - - - - - 13.9 1022.0 -
29/03:30pm NW 16 19 - - - - - - - 13.9 1022.0 -
29/03:00pm NW 16 20 - - - - - - - 13.9 1022.1 -
29/02:30pm NNW 17 20 - - - - - - - 13.9 1021.9 -
29/02:00pm NNW 16 19 - - - - - - - 13.9 1022.0 -
29/01:30pm NNW 17 20 - - - - - - - 13.9 1022.3 -
29/01:00pm NNW 17 22 - - - - - - - 13.9 1022.6 -
29/12:30pm NNW 15 18 - - - - - - - 13.9 1022.8 -
29/12:00pm NW 14 19 - - - - - - - 14.0 1023.1 -
29/11:30am NW 14 17 - - - - - - - 14.0 1023.5 -
29/11:00am NW 15 18 - - - - - - - 13.9 1023.5 -
29/10:30am NNW 14 17 - - - - - - - 13.9 1023.5 -
29/10:00am NW 8 12 - - - - - - - 13.9 1023.4 -
29/09:30am WNW 5 8 - - - - - - - 13.8 1023.3 -
29/09:00am WNW 3 8 - - - - - - - 13.8 1023.0 -
29/08:30am WNW 4 8 - - - - - - - 13.6 1022.9 -
29/08:00am WNW 5 10 - - - - - - - 13.4 1022.8 -
29/07:30am WNW 2 6 - - - - - - - 13.4 1022.7 -
29/07:00am WNW 1 5 - - - - - - - 13.1 1022.4 -
29/06:30am WNW 3 5 - - - - - - - 13.0 1022.2 -
29/06:00am WNW 3 7 - - - - - - - 12.9 1021.9 -
29/05:30am WNW 5 10 - - - - - - - 12.9 1021.7 -
29/05:00am NW 6 11 - - - - - - - 13.0 1021.5 -
29/04:30am NW 6 11 - - - - - - - 13.2 1021.3 -
29/04:00am WNW 6 11 - - - - - - - 13.3 1021.1 -
29/03:30am WNW 5 9 - - - - - - - 13.3 1020.9 -
29/03:00am WNW 4 8 - - - - - - - 13.0 1020.9 -
29/02:30am WNW 4 7 - - - - - - - 12.9 1020.8 -
29/02:00am WNW 3 7 - - - - - - - 12.9 1020.6 -
29/01:30am WNW 5 8 - - - - - - - 12.7 1020.5 -
29/01:00am WNW 5 9 - - - - - - - 12.6 1020.6 -
29/12:30am WNW 4 8 - - - - - - - 12.4 1020.8 -
29/12:00am WNW 1 5 - - - - - - - 12.0 1021.0 -
 
Date/Time
EST
Wind Sea
Height
m
Swell Vis
km
Cloud Weather Temp
°C
Press
hPa
Rain since
9am
mm
Dir  Spd
kts
Gust
kts
Height
m
Period
s
Dir
28/11:30pm CALM 0 0 - - - - - - - 10.7 1020.9 -
28/11:00pm CALM 0 0 - - - - - - - 10.6 1020.9 -
28/10:30pm CALM 0 0 - - - - - - - 11.8 1020.9 -
28/10:00pm CALM 0 2 - - - - - - - 12.0 1020.9 -
28/09:30pm CALM 0 0 - - - - - - - 11.8 1021.0 -
28/09:00pm CALM 0 0 - - - - - - - 11.7 1020.7 -
28/08:30pm CALM 0 3 - - - - - - - 11.9 1020.5 -
28/08:00pm W 1 4 - - - - - - - 11.9 1020.4 -
28/07:30pm W 1 5 - - - - - - - 11.6 1020.0 -
28/07:00pm WNW 6 13 - - - - - - - 11.9 1019.9 -
28/06:30pm W 5 10 - - - - - - - 11.9 1019.5 -
28/06:00pm WNW 6 12 - - - - - - - 12.2 1019.1 -
28/05:30pm WNW 4 8 - - - - - - - 12.4 1018.8 -
28/05:00pm WNW 6 11 - - - - - - - 13.0 1018.6 -
28/04:30pm WNW 7 11 - - - - - - - 13.5 1018.2 -
28/04:00pm WNW 8 13 - - - - - - - 14.0 1017.8 -
28/03:30pm WNW 7 13 - - - - - - - 14.5 1017.4 -
28/03:00pm WNW 6 12 - - - - - - - 14.7 1017.3 -
28/02:30pm NW 11 15 - - - - - - - 14.2 1017.2 -
28/02:00pm NW 12 15 - - - - - - - 13.9 1017.0 -
28/01:30pm NW 9 13 - - - - - - - 14.1 1017.1 -
28/01:00pm WNW 6 12 - - - - - - - 13.8 1017.3 -
28/12:30pm NW 11 15 - - - - - - - 14.1 1017.4 -
28/12:00pm NW 7 9 - - - - - - - 13.7 1017.6 -
28/11:30am NW 8 12 - - - - - - - 13.1 1017.9 -
28/11:00am WNW 7 11 - - - - - - - 13.1 1018.1 -
28/10:30am NW 8 10 - - - - - - - 12.7 1018.2 -
28/10:00am NNW 5 7 - - - - - - - 12.4 1018.0 -
28/09:30am WNW 4 7 - - - - - - - 12.9 1017.9 -
28/09:00am WNW 3 7 - - - - - - - 12.3 1017.9 -
28/08:30am CALM 0 1 - - - - - - - 12.1 1017.7 -
28/08:00am WNW 2 6 - - - - - - - 11.8 1017.4 -
28/07:30am CALM 0 2 - - - - - - - 11.5 1017.2 -
28/07:00am CALM 0 0 - - - - - - - 11.6 1017.0 -
28/06:30am WNW 1 4 - - - - - - - 11.9 1016.8 -
28/06:00am CALM 0 0 - - - - - - - 11.9 1016.5 -
28/05:30am CALM 0 3 - - - - - - - 12.2 1016.4 -
28/05:00am CALM 0 0 - - - - - - - 12.1 1016.2 -
28/04:30am CALM 0 0 - - - - - - - 11.8 1016.0 -
28/04:00am CALM 0 0 - - - - - - - 11.9 1015.9 -
28/03:30am CALM 0 0 - - - - - - - 12.0 1015.9 -
28/03:00am CALM 0 0 - - - - - - - 12.3 1016.1 -
28/02:30am CALM 0 0 - - - - - - - 12.4 1016.2 -
28/02:00am CALM 0 1 - - - - - - - 12.4 1016.4 -
28/01:30am WNW 5 12 - - - - - - - 13.1 1016.5 -
28/01:00am CALM 0 0 - - - - - - - 12.3 1016.5 -
28/12:30am CALM 0 0 - - - - - - - 12.5 1016.7 -
28/12:00am CALM 0 0 - - - - - - - 12.2 1016.7 -
 
Date/Time
EST
Wind Sea
Height
m
Swell Vis
km
Cloud Weather Temp
°C
Press
hPa
Rain since
9am
mm
Dir  Spd
kts
Gust
kts
Height
m
Period
s
Dir
27/11:30pm CALM 0 0 - - - - - - - 12.6 1016.8 -
27/11:00pm CALM 0 0 - - - - - - - 13.3 1017.0 -
27/10:30pm CALM 0 0 - - - - - - - 12.5 1017.2 -
27/10:00pm CALM 0 1 - - - - - - - 12.6 1017.4 -
27/09:30pm NNW 5 7 - - - - - - - 14.0 1017.3 -
27/09:00pm NNW 8 11 - - - - - - - 14.2 1017.3 -
27/08:30pm NNW 7 9 - - - - - - - 14.2 1017.3 -
27/08:00pm NNW 8 11 - - - - - - - 14.3 1017.4 -
27/07:30pm N 6 9 - - - - - - - 14.2 1017.4 -

Other formats

Comma delimited format used in spreadsheet applications
http://www.bom.gov.au/fwo/IDT60701/IDT60701.95963.axf

JavaScript Object Notation format (JSON) in row-major order
http://www.bom.gov.au/fwo/IDT60701/IDT60701.95963.json

Data quality

Most of these data are generated automatically and are frequently updated. Quality checks on data are not normally performed. It is possible for incorrect values to appear. Refer to information at About Latest Weather Observations and please check the disclaimer before using these data.